sensor_id;sensor_type;location;lat;lon;timestamp;pressure;altitude;pressure_sealevel;temperature;humidity
69766;BME280;57039;48.014;21.384;2023-02-11T00:00:16;102753.09;;;-4.47;100.00
69766;BME280;57039;48.014;21.384;2023-02-11T00:01:32;102739.19;;;-4.52;100.00
69766;BME280;57039;48.014;21.384;2023-02-11T00:02:35;102751.13;;;-4.52;100.00
69766;BME280;57039;48.014;21.384;2023-02-11T00:03:38;102755.25;;;-4.56;100.00
69766;BME280;57039;48.014;21.384;2023-02-11T00:04:41;102758.81;;;-4.52;100.00
69766;BME280;57039;48.014;21.384;2023-02-11T00:05:44;102746.81;;;-4.53;100.00
69766;BME280;57039;48.014;21.384;2023-02-11T00:06:47;102741.75;;;-4.52;100.00
69766;BME280;57039;48.014;21.384;2023-02-11T00:07:50;102746.88;;;-4.52;100.00
69766;BME280;57039;48.014;21.384;2023-02-11T00:08:53;102734.75;;;-4.56;100.00
69766;BME280;57039;48.014;21.384;2023-02-11T00:09:56;102739.31;;;-4.49;100.00
69766;BME280;57039;48.014;21.384;2023-02-11T00:10:59;102752.22;;;-4.47;100.00
69766;BME280;57039;48.014;21.384;2023-02-11T00:12:02;102746.25;;;-4.46;100.00
69766;BME280;57039;48.014;21.384;2023-02-11T00:13:05;102744.41;;;-4.50;100.00
69766;BME280;57039;48.014;21.384;2023-02-11T00:14:09;102743.44;;;-4.52;100.00
69766;BME280;57039;48.014;21.384;2023-02-11T00:15:13;102745.13;;;-4.53;100.00
69766;BME280;57039;48.014;21.384;2023-02-11T00:16:18;102750.25;;;-4.53;100.00
69766;BME280;57039;48.014;21.384;2023-02-11T00:17:21;102745.13;;;-4.53;100.00
69766;BME280;57039;48.014;21.384;2023-02-11T00:18:25;102742.69;;;-4.50;100.00
69766;BME280;57039;48.014;21.384;2023-02-11T00:19:27;102744.87;;;-4.59;100.00
69766;BME280;57039;48.014;21.384;2023-02-11T00:20:30;102748.25;;;-4.60;100.00
69766;BME280;57039;48.014;21.384;2023-02-11T00:21:34;102749.03;;;-4.61;100.00
69766;BME280;57039;48.014;21.384;2023-02-11T00:22:37;102747.31;;;-4.62;100.00
69766;BME280;57039;48.014;21.384;2023-02-11T00:23:40;102745.44;;;-4.66;100.00
69766;BME280;57039;48.014;21.384;2023-02-11T00:24:43;102744.41;;;-4.70;100.00
69766;BME280;57039;48.014;21.384;2023-02-11T00:25:46;102751.34;;;-4.67;100.00
69766;BME280;57039;48.014;21.384;2023-02-11T00:26:49;102748.66;;;-4.70;100.00
69766;BME280;57039;48.014;21.384;2023-02-11T00:27:52;102752.03;;;-4.71;100.00
69766;BME280;57039;48.014;21.384;2023-02-11T00:28:55;102755.19;;;-4.77;100.00
69766;BME280;57039;48.014;21.384;2023-02-11T00:29:58;102752.75;;;-4.74;100.00
69766;BME280;57039;48.014;21.384;2023-02-11T00:31:04;102752.63;;;-4.77;100.00
69766;BME280;57039;48.014;21.384;2023-02-11T00:32:08;102753.62;;;-4.73;100.00
69766;BME280;57039;48.014;21.384;2023-02-11T00:33:12;102752.72;;;-4.75;100.00
69766;BME280;57039;48.014;21.384;2023-02-11T00:34:15;102755.13;;;-4.78;100.00
69766;BME280;57039;48.014;21.384;2023-02-11T00:35:17;102751.63;;;-4.80;100.00
69766;BME280;57039;48.014;21.384;2023-02-11T00:36:25;102744.59;;;-4.85;100.00
69766;BME280;57039;48.014;21.384;2023-02-11T00:37:28;102752.63;;;-4.77;100.00
69766;BME280;57039;48.014;21.384;2023-02-11T00:38:31;102755.06;;;-4.80;100.00
69766;BME280;57039;48.014;21.384;2023-02-11T00:39:35;102762.59;;;-4.83;100.00
69766;BME280;57039;48.014;21.384;2023-02-11T00:40:38;102739.84;;;-4.96;100.00
69766;BME280;57039;48.014;21.384;2023-02-11T00:41:41;102760.84;;;-4.84;100.00
69766;BME280;57039;48.014;21.384;2023-02-11T00:42:43;102755.66;;;-4.86;100.00
69766;BME280;57039;48.014;21.384;2023-02-11T00:43:48;102759.94;;;-4.85;100.00
69766;BME280;57039;48.014;21.384;2023-02-11T00:44:52;102758.16;;;-4.87;100.00
69766;BME280;57039;48.014;21.384;2023-02-11T00:45:54;102759.03;;;-4.87;100.00
69766;BME280;57039;48.014;21.384;2023-02-11T00:46:58;102756.34;;;-4.90;100.00
69766;BME280;57039;48.014;21.384;2023-02-11T00:48:01;102760.84;;;-4.84;100.00
69766;BME280;57039;48.014;21.384;2023-02-11T00:49:04;102753.62;;;-4.93;100.00
69766;BME280;57039;48.014;21.384;2023-02-11T00:50:07;102747.03;;;-4.88;100.00
69766;BME280;57039;48.014;21.384;2023-02-11T00:51:10;102753.09;;;-4.86;100.00
69766;BME280;57039;48.014;21.384;2023-02-11T00:52:13;102748.72;;;-4.88;100.00
69766;BME280;57039;48.014;21.384;2023-02-11T00:53:17;102748.78;;;-4.87;100.00
69766;BME280;57039;48.014;21.384;2023-02-11T00:54:20;102747.03;;;-4.88;100.00
69766;BME280;57039;48.014;21.384;2023-02-11T00:55:22;102744.59;;;-4.85;100.00
69766;BME280;57039;48.014;21.384;2023-02-11T00:56:25;102744.31;;;-4.91;100.00
69766;BME280;57039;48.014;21.384;2023-02-11T00:57:30;102740.72;;;-4.96;100.00
69766;BME280;57039;48.014;21.384;2023-02-11T00:58:33;102748.53;;;-4.93;100.00
69766;BME280;57039;48.014;21.384;2023-02-11T00:59:37;102740.72;;;-4.96;100.00
69766;BME280;57039;48.014;21.384;2023-02-11T01:00:40;102741.56;;;-4.95;100.00
69766;BME280;57039;48.014;21.384;2023-02-11T01:01:43;102738.00;;;-4.99;100.00
69766;BME280;57039;48.014;21.384;2023-02-11T01:02:46;102737.19;;;-4.98;100.00
69766;BME280;57039;48.014;21.384;2023-02-11T01:03:49;102733.81;;;-4.97;100.00
69766;BME280;57039;48.014;21.384;2023-02-11T01:04:52;102729.38;;;-5.01;100.00
69766;BME280;57039;48.014;21.384;2023-02-11T01:05:55;102738.06;;;-4.97;100.00
69766;BME280;57039;48.014;21.384;2023-02-11T01:06:58;102733.03;;;-4.96;100.00
69766;BME280;57039;48.014;21.384;2023-02-11T01:08:01;102721.69;;;-5.01;100.00
69766;BME280;57039;48.014;21.384;2023-02-11T01:09:04;102718.19;;;-5.03;100.00
69766;BME280;57039;48.014;21.384;2023-02-11T01:10:09;102715.50;;;-5.06;100.00
69766;BME280;57039;48.014;21.384;2023-02-11T01:11:16;102710.31;;;-5.08;100.00
69766;BME280;57039;48.014;21.384;2023-02-11T01:12:19;102703.38;;;-5.10;100.00
69766;BME280;57039;48.014;21.384;2023-02-11T01:13:23;102708.50;;;-5.10;100.00
69766;BME280;57039;48.014;21.384;2023-02-11T01:14:28;102704.34;;;-5.08;100.00
69766;BME280;57039;48.014;21.384;2023-02-11T01:15:31;102705.94;;;-5.10;100.00
69766;BME280;57039;48.014;21.384;2023-02-11T01:16:35;102700.09;;;-5.08;100.00
69766;BME280;57039;48.014;21.384;2023-02-11T01:17:37;102696.72;;;-5.07;100.00
69766;BME280;57039;48.014;21.384;2023-02-11T01:18:41;102706.91;;;-5.08;100.00
69766;BME280;57039;48.014;21.384;2023-02-11T01:19:46;102700.75;;;-5.12;100.00
69766;BME280;57039;48.014;21.384;2023-02-11T01:20:52;102698.94;;;-5.14;100.00
69766;BME280;57039;48.014;21.384;2023-02-11T01:21:55;102700.47;;;-5.18;100.00
69766;BME280;57039;48.014;21.384;2023-02-11T01:22:58;102703.25;;;-5.13;100.00
69766;BME280;57039;48.014;21.384;2023-02-11T01:24:01;102700.81;;;-5.10;100.00
69766;BME280;57039;48.014;21.384;2023-02-11T01:25:05;102697.25;;;-5.14;100.00
69766;BME280;57039;48.014;21.384;2023-02-11T01:26:10;102688.59;;;-5.17;100.00
69766;BME280;57039;48.014;21.384;2023-02-11T01:27:13;102695.56;;;-5.13;100.00
69766;BME280;57039;48.014;21.384;2023-02-11T01:28:18;102699.59;;;-5.18;100.00
69766;BME280;57039;48.014;21.384;2023-02-11T01:29:21;102702.09;;;-5.20;100.00
69766;BME280;57039;48.014;21.384;2023-02-11T01:30:24;102695.31;;;-5.19;100.00
69766;BME280;57039;48.014;21.384;2023-02-11T01:31:27;102691.94;;;-5.18;100.00
69766;BME280;57039;48.014;21.384;2023-02-11T01:32:32;102691.88;;;-5.20;100.00
69766;BME280;57039;48.014;21.384;2023-02-11T01:33:35;102699.81;;;-5.14;100.00
69766;BME280;57039;48.014;21.384;2023-02-11T01:34:40;102696.56;;;-5.10;100.00
69766;BME280;57039;48.014;21.384;2023-02-11T01:35:43;102697.31;;;-5.12;100.00
69766;BME280;57039;48.014;21.384;2023-02-11T01:36:46;102700.56;;;-5.16;100.00
69766;BME280;57039;48.014;21.384;2023-02-11T01:37:49;102695.44;;;-5.16;100.00
69766;BME280;57039;48.014;21.384;2023-02-11T01:38:52;102692.88;;;-5.16;100.00
69766;BME280;57039;48.014;21.384;2023-02-11T01:39:55;102697.19;;;-5.15;100.00
69766;BME280;57039;48.014;21.384;2023-02-11T01:41:04;102628.91;;;-5.55;100.00
69766;BME280;57039;48.014;21.384;2023-02-11T01:42:15;102691.19;;;-5.16;100.00
69766;BME280;57039;48.014;21.384;2023-02-11T01:43:18;102685.06;;;-5.19;100.00
69766;BME280;57039;48.014;21.384;2023-02-11T01:44:34;102687.69;;;-5.18;100.00
69766;BME280;57039;48.014;21.384;2023-02-11T01:46:46;102688.59;;;-5.17;100.00
69766;BME280;57039;48.014;21.384;2023-02-11T01:47:50;102686.81;;;-5.18;100.00
69766;BME280;57039;48.014;21.384;2023-02-11T01:49:10;102690.06;;;-5.22;100.00
69766;BME280;57039;48.014;21.384;2023-02-11T01:50:14;102685.81;;;-5.22;100.00
69766;BME280;57039;48.014;21.384;2023-02-11T01:51:20;102654.28;;;-5.40;100.00
69766;BME280;57039;48.014;21.384;2023-02-11T01:52:35;102689.31;;;-5.20;100.00
69766;BME280;57039;48.014;21.384;2023-02-11T01:53:42;102690.91;;;-5.22;100.00
69766;BME280;57039;48.014;21.384;2023-02-11T01:55:08;102683.94;;;-5.26;100.00
69766;BME280;57039;48.014;21.384;2023-02-11T01:56:31;102689.91;;;-5.25;100.00
69766;BME280;57039;48.014;21.384;2023-02-11T01:57:56;102688.69;;;-5.34;100.00
69766;BME280;57039;48.014;21.384;2023-02-11T01:59:06;102686.06;;;-5.35;100.00
69766;BME280;57039;48.014;21.384;2023-02-11T02:00:20;102684.44;;;-5.33;100.00
69766;BME280;57039;48.014;21.384;2023-02-11T02:01:26;102685.16;;;-5.36;100.00
69766;BME280;57039;48.014;21.384;2023-02-11T02:02:40;102686.84;;;-5.36;100.00
69766;BME280;57039;48.014;21.384;2023-02-11T02:03:48;102678.25;;;-5.38;100.00
69766;BME280;57039;48.014;21.384;2023-02-11T02:04:59;102677.50;;;-5.36;100.00
69766;BME280;57039;48.014;21.384;2023-02-11T02:06:14;102677.59;;;-5.34;100.00
69766;BME280;57039;48.014;21.384;2023-02-11T02:07:33;102680.87;;;-5.37;100.00
69766;BME280;57039;48.014;21.384;2023-02-11T02:08:53;102683.38;;;-5.38;100.00
69766;BME280;57039;48.014;21.384;2023-02-11T02:10:03;102678.13;;;-5.41;100.00
69766;BME280;57039;48.014;21.384;2023-02-11T02:11:07;102680.50;;;-5.44;100.00
69766;BME280;57039;48.014;21.384;2023-02-11T02:12:11;102676.94;;;-5.48;100.00
69766;BME280;57039;48.014;21.384;2023-02-11T02:13:14;102684.34;;;-5.54;100.00
69766;BME280;57039;48.014;21.384;2023-02-11T02:14:17;102681.78;;;-5.54;100.00
69766;BME280;57039;48.014;21.384;2023-02-11T02:15:29;102681.91;;;-5.51;100.00
69766;BME280;57039;48.014;21.384;2023-02-11T02:16:34;102675.13;;;-5.51;100.00
69766;BME280;57039;48.014;21.384;2023-02-11T02:17:45;102672.66;;;-5.49;100.00
69766;BME280;57039;48.014;21.384;2023-02-11T02:29:35;102658.47;;;-5.23;100.00
69766;BME280;57039;48.014;21.384;2023-02-11T02:32:32;102655.84;;;-5.24;100.00
69766;BME280;57039;48.014;21.384;2023-02-11T02:35:03;102652.12;;;-5.31;100.00
69766;BME280;57039;48.014;21.384;2023-02-11T02:37:27;102645.06;;;-5.37;100.00
69766;BME280;57039;48.014;21.384;2023-02-11T02:39:50;102640.81;;;-5.36;100.00
69766;BME280;57039;48.014;21.384;2023-02-11T02:40:56;102644.25;;;-5.36;100.00
69766;BME280;57039;48.014;21.384;2023-02-11T02:42:00;102641.69;;;-5.36;100.00
69766;BME280;57039;48.014;21.384;2023-02-11T02:43:06;102638.22;;;-5.38;100.00
69766;BME280;57039;48.014;21.384;2023-02-11T02:44:11;102641.56;;;-5.39;100.00
69766;BME280;57039;48.014;21.384;2023-02-11T02:45:14;102632.09;;;-5.41;100.00
69766;BME280;57039;48.014;21.384;2023-02-11T02:46:20;102637.94;;;-5.44;100.00
69766;BME280;57039;48.014;21.384;2023-02-11T02:47:23;102642.38;;;-5.40;100.00
69766;BME280;57039;48.014;21.384;2023-02-11T02:48:28;102648.50;;;-5.36;100.00
69766;BME280;57039;48.014;21.384;2023-02-11T02:49:31;102649.19;;;-5.40;100.00
69766;BME280;57039;48.014;21.384;2023-02-11T02:50:36;102650.87;;;-5.41;100.00
69766;BME280;57039;48.014;21.384;2023-02-11T02:53:45;102646.25;;;-5.48;100.00
69766;BME280;57039;48.014;21.384;2023-02-11T02:56:20;102659.78;;;-5.51;100.00
69766;BME280;57039;48.014;21.384;2023-02-11T02:58:41;102666.16;;;-5.60;100.00
69766;BME280;57039;48.014;21.384;2023-02-11T03:02:50;102657.75;;;-5.58;100.00
69766;BME280;57039;48.014;21.384;2023-02-11T03:06:54;102655.16;;;-5.59;100.00
69766;BME280;57039;48.014;21.384;2023-02-11T03:09:08;102655.78;;;-5.63;100.00
69766;BME280;57039;48.014;21.384;2023-02-11T03:10:30;102652.47;;;-5.62;100.00
69766;BME280;57039;48.014;21.384;2023-02-11T03:11:36;102658.72;;;-5.56;100.00
69766;BME280;57039;48.014;21.384;2023-02-11T03:12:41;102657.72;;;-5.59;100.00
69766;BME280;57039;48.014;21.384;2023-02-11T03:13:45;102652.59;;;-5.59;100.00
69766;BME280;57039;48.014;21.384;2023-02-11T03:14:50;102652.50;;;-5.61;100.00
69766;BME280;57039;48.014;21.384;2023-02-11T03:15:56;102654.84;;;-5.65;100.00
69766;BME280;57039;48.014;21.384;2023-02-11T03:17:02;102656.53;;;-5.66;100.00
69766;BME280;57039;48.014;21.384;2023-02-11T03:18:08;102650.69;;;-5.63;100.00
69766;BME280;57039;48.014;21.384;2023-02-11T03:19:22;102647.94;;;-5.68;100.00
69766;BME280;57039;48.014;21.384;2023-02-11T03:20:29;102654.19;;;-5.61;100.00
69766;BME280;57039;48.014;21.384;2023-02-11T03:21:36;102659.31;;;-5.61;100.00
69766;BME280;57039;48.014;21.384;2023-02-11T03:22:49;102659.94;;;-5.65;100.00
69766;BME280;57039;48.014;21.384;2023-02-11T03:24:02;102653.78;;;-5.70;100.00
69766;BME280;57039;48.014;21.384;2023-02-11T03:25:07;102654.50;;;-5.73;100.00
69766;BME280;57039;48.014;21.384;2023-02-11T03:26:29;102647.66;;;-5.74;100.00
69766;BME280;57039;48.014;21.384;2023-02-11T03:28:12;102644.28;;;-5.73;100.00
69766;BME280;57039;48.014;21.384;2023-02-11T03:31:26;102629.81;;;-5.72;100.00
69766;BME280;57039;48.014;21.384;2023-02-11T03:32:40;102631.50;;;-5.73;100.00
69766;BME280;57039;48.014;21.384;2023-02-11T03:35:09;102635.38;;;-5.81;100.00
69766;BME280;57039;48.014;21.384;2023-02-11T03:36:18;102627.66;;;-5.83;100.00
69766;BME280;57039;48.014;21.384;2023-02-11T03:38:32;102626.97;;;-5.79;100.00
69766;BME280;57039;48.014;21.384;2023-02-11T03:39:46;102618.84;;;-5.70;100.00
69766;BME280;57039;48.014;21.384;2023-02-11T03:40:53;102618.25;;;-5.64;100.00
69766;BME280;57039;48.014;21.384;2023-02-11T03:41:58;102620.72;;;-5.66;100.00
69766;BME280;57039;48.014;21.384;2023-02-11T03:43:10;102616.22;;;-5.71;100.00
69766;BME280;57039;48.014;21.384;2023-02-11T03:44:16;102618.84;;;-5.70;100.00
69766;BME280;57039;48.014;21.384;2023-02-11T03:45:21;102603.03;;;-5.81;100.00
69766;BME280;57039;48.014;21.384;2023-02-11T03:46:33;102613.75;;;-5.70;100.00
69766;BME280;57039;48.014;21.384;2023-02-11T03:47:42;102616.16;;;-5.73;100.00
69766;BME280;57039;48.014;21.384;2023-02-11T03:48:50;102614.62;;;-5.69;100.00
69766;BME280;57039;48.014;21.384;2023-02-11T03:49:55;102614.62;;;-5.69;100.00
69766;BME280;57039;48.014;21.384;2023-02-11T03:51:02;102608.53;;;-5.71;100.00
69766;BME280;57039;48.014;21.384;2023-02-11T03:52:07;102608.41;;;-5.75;100.00
69766;BME280;57039;48.014;21.384;2023-02-11T03:53:13;102605.94;;;-5.73;100.00
69766;BME280;57039;48.014;21.384;2023-02-11T03:54:20;102607.75;;;-5.70;100.00
69766;BME280;57039;48.014;21.384;2023-02-11T03:55:27;102592.53;;;-5.87;100.00
69766;BME280;57039;48.014;21.384;2023-02-11T03:56:37;102599.44;;;-5.84;100.00
69766;BME280;57039;48.014;21.384;2023-02-11T03:57:41;102582.00;;;-5.94;100.00
69766;BME280;57039;48.014;21.384;2023-02-11T03:58:44;102588.09;;;-5.91;100.00
69766;BME280;57039;48.014;21.384;2023-02-11T03:59:55;102590.56;;;-5.92;100.00
69766;BME280;57039;48.014;21.384;2023-02-11T04:00:59;102583.59;;;-5.97;100.00
69766;BME280;57039;48.014;21.384;2023-02-11T04:02:04;102580.16;;;-5.97;100.00
69766;BME280;57039;48.014;21.384;2023-02-11T04:03:08;102575.13;;;-5.95;100.00
69766;BME280;57039;48.014;21.384;2023-02-11T04:04:12;102573.47;;;-5.95;100.00
69766;BME280;57039;48.014;21.384;2023-02-11T04:05:15;102566.44;;;-5.99;100.00
69766;BME280;57039;48.014;21.384;2023-02-11T04:06:18;102566.72;;;-5.93;100.00
69766;BME280;57039;48.014;21.384;2023-02-11T04:07:21;102568.75;;;-5.86;100.00
69766;BME280;57039;48.014;21.384;2023-02-11T04:08:24;102557.69;;;-5.85;100.00
69766;BME280;57039;48.014;21.384;2023-02-11T04:09:26;102563.75;;;-5.83;100.00
69766;BME280;57039;48.014;21.384;2023-02-11T04:10:29;102557.59;;;-5.86;100.00
69766;BME280;57039;48.014;21.384;2023-02-11T04:11:32;102554.12;;;-5.88;100.00
69766;BME280;57039;48.014;21.384;2023-02-11T04:12:35;102551.63;;;-5.87;100.00
69766;BME280;57039;48.014;21.384;2023-02-11T04:13:38;102554.28;;;-5.85;100.00
69766;BME280;57039;48.014;21.384;2023-02-11T04:14:41;102553.31;;;-5.87;100.00
69766;BME280;57039;48.014;21.384;2023-02-11T04:15:43;102555.75;;;-5.90;100.00
69766;BME280;57039;48.014;21.384;2023-02-11T04:16:50;102555.81;;;-5.89;100.00
69766;BME280;57039;48.014;21.384;2023-02-11T04:17:53;102549.81;;;-5.89;100.00
69766;BME280;57039;48.014;21.384;2023-02-11T04:18:56;102552.31;;;-5.91;100.00
69766;BME280;57039;48.014;21.384;2023-02-11T04:19:59;102546.47;;;-5.88;100.00
69766;BME280;57039;48.014;21.384;2023-02-11T04:21:02;102552.31;;;-5.91;100.00
69766;BME280;57039;48.014;21.384;2023-02-11T04:22:05;102547.25;;;-5.89;100.00
69766;BME280;57039;48.014;21.384;2023-02-11T04:23:08;102548.94;;;-5.90;100.00
69766;BME280;57039;48.014;21.384;2023-02-11T04:24:11;102535.00;;;-5.98;100.00
69766;BME280;57039;48.014;21.384;2023-02-11T04:25:14;102545.50;;;-5.90;100.00
69766;BME280;57039;48.014;21.384;2023-02-11T04:26:17;102531.69;;;-5.95;100.00
69766;BME280;57039;48.014;21.384;2023-02-11T04:27:19;102547.19;;;-5.91;100.00
69766;BME280;57039;48.014;21.384;2023-02-11T04:28:23;102539.72;;;-5.86;100.00
69766;BME280;57039;48.014;21.384;2023-02-11T04:29:26;102538.84;;;-5.87;100.00
69766;BME280;57039;48.014;21.384;2023-02-11T04:30:29;102528.50;;;-5.90;100.00
69766;BME280;57039;48.014;21.384;2023-02-11T04:31:32;102527.56;;;-5.92;100.00
69766;BME280;57039;48.014;21.384;2023-02-11T04:32:35;102532.69;;;-5.92;100.00
69766;BME280;57039;48.014;21.384;2023-02-11T04:33:38;102531.13;;;-5.88;100.00
69766;BME280;57039;48.014;21.384;2023-02-11T04:34:40;102526.81;;;-5.89;100.00
69766;BME280;57039;48.014;21.384;2023-02-11T04:35:44;102528.59;;;-5.88;100.00
69766;BME280;57039;48.014;21.384;2023-02-11T04:36:46;102526.75;;;-5.91;100.00
69766;BME280;57039;48.014;21.384;2023-02-11T04:37:49;102527.63;;;-5.90;100.00
69766;BME280;57039;48.014;21.384;2023-02-11T04:38:52;102536.16;;;-5.90;100.00
69766;BME280;57039;48.014;21.384;2023-02-11T04:39:55;102541.34;;;-5.88;100.00
69766;BME280;57039;48.014;21.384;2023-02-11T04:40:57;102544.84;;;-5.86;100.00
69766;BME280;57039;48.014;21.384;2023-02-11T04:42:02;102544.78;;;-5.88;100.00
69766;BME280;57039;48.014;21.384;2023-02-11T04:43:05;102543.09;;;-5.87;100.00
69766;BME280;57039;48.014;21.384;2023-02-11T04:44:08;102551.56;;;-5.88;100.00
69766;BME280;57039;48.014;21.384;2023-02-11T04:45:11;102550.56;;;-5.92;100.00
69766;BME280;57039;48.014;21.384;2023-02-11T04:46:14;102551.38;;;-5.93;100.00
69766;BME280;57039;48.014;21.384;2023-02-11T04:47:17;102545.28;;;-5.97;100.00
69766;BME280;57039;48.014;21.384;2023-02-11T04:48:23;102557.56;;;-5.88;100.00
69766;BME280;57039;48.014;21.384;2023-02-11T04:49:26;102559.09;;;-5.91;100.00
69766;BME280;57039;48.014;21.384;2023-02-11T04:50:29;102557.31;;;-5.94;100.00
69766;BME280;57039;48.014;21.384;2023-02-11T04:51:32;102545.09;;;-6.01;100.00
69766;BME280;57039;48.014;21.384;2023-02-11T04:52:34;102556.31;;;-5.98;100.00
69766;BME280;57039;48.014;21.384;2023-02-11T04:53:37;102554.47;;;-6.00;100.00
69766;BME280;57039;48.014;21.384;2023-02-11T04:54:40;102561.28;;;-6.01;100.00
69766;BME280;57039;48.014;21.384;2023-02-11T04:55:43;102560.41;;;-6.01;100.00
69766;BME280;57039;48.014;21.384;2023-02-11T04:56:46;102562.97;;;-6.01;100.00
69766;BME280;57039;48.014;21.384;2023-02-11T04:57:49;102568.84;;;-6.02;100.00
69766;BME280;57039;48.014;21.384;2023-02-11T04:58:51;102569.88;;;-5.99;100.00
69766;BME280;57039;48.014;21.384;2023-02-11T04:59:55;102563.97;;;-5.98;100.00
69766;BME280;57039;48.014;21.384;2023-02-11T05:01:08;102570.00;;;-5.95;100.00
69766;BME280;57039;48.014;21.384;2023-02-11T05:02:11;102573.38;;;-5.97;100.00
69766;BME280;57039;48.014;21.384;2023-02-11T05:03:14;102569.28;;;-5.93;100.00
69766;BME280;57039;48.014;21.384;2023-02-11T05:04:16;102573.31;;;-5.98;100.00
69766;BME280;57039;48.014;21.384;2023-02-11T05:05:20;102582.50;;;-6.02;100.00
69766;BME280;57039;48.014;21.384;2023-02-11T05:06:23;102575.66;;;-6.03;100.00
69766;BME280;57039;48.014;21.384;2023-02-11T05:07:26;102570.53;;;-6.03;100.00
69766;BME280;57039;48.014;21.384;2023-02-11T05:08:29;102576.03;;;-5.95;100.00
69766;BME280;57039;48.014;21.384;2023-02-11T05:09:32;102579.50;;;-5.93;100.00
69766;BME280;57039;48.014;21.384;2023-02-11T05:10:36;102575.94;;;-5.97;100.00
69766;BME280;57039;48.014;21.384;2023-02-11T05:11:38;102579.44;;;-5.94;100.00
69766;BME280;57039;48.014;21.384;2023-02-11T05:12:41;102567.31;;;-5.99;100.00
69766;BME280;57039;48.014;21.384;2023-02-11T05:13:44;102566.31;;;-6.02;100.00
69766;BME280;57039;48.014;21.384;2023-02-11T05:14:47;102575.19;;;-5.94;100.00
69766;BME280;57039;48.014;21.384;2023-02-11T05:15:50;102568.25;;;-5.97;100.00
69766;BME280;57039;48.014;21.384;2023-02-11T05:16:53;102578.69;;;-5.92;100.00
69766;BME280;57039;48.014;21.384;2023-02-11T05:17:56;102576.06;;;-5.93;100.00
69766;BME280;57039;48.014;21.384;2023-02-11T05:18:59;102581.12;;;-5.95;100.00
69766;BME280;57039;48.014;21.384;2023-02-11T05:20:02;102580.34;;;-5.92;100.00
69766;BME280;57039;48.014;21.384;2023-02-11T05:21:07;102578.47;;;-5.97;100.00
69766;BME280;57039;48.014;21.384;2023-02-11T05:22:10;102578.94;;;-6.05;100.00
69766;BME280;57039;48.014;21.384;2023-02-11T05:23:13;102577.25;;;-6.05;100.00
69766;BME280;57039;48.014;21.384;2023-02-11T05:24:15;102573.91;;;-6.04;100.00
69766;BME280;57039;48.014;21.384;2023-02-11T05:25:18;102577.94;;;-6.09;100.00
69766;BME280;57039;48.014;21.384;2023-02-11T05:26:22;102581.50;;;-6.05;100.00
69766;BME280;57039;48.014;21.384;2023-02-11T05:27:25;102574.69;;;-6.05;100.00
69766;BME280;57039;48.014;21.384;2023-02-11T05:28:28;102581.50;;;-6.05;100.00
69766;BME280;57039;48.014;21.384;2023-02-11T05:29:30;102575.78;;;-6.00;100.00
69766;BME280;57039;48.014;21.384;2023-02-11T05:30:33;102578.44;;;-5.98;100.00
69766;BME280;57039;48.014;21.384;2023-02-11T05:31:37;102578.34;;;-6.00;100.00
69766;BME280;57039;48.014;21.384;2023-02-11T05:32:39;102570.00;;;-5.95;100.00
69766;BME280;57039;48.014;21.384;2023-02-11T05:33:43;102577.88;;;-5.91;100.00
69766;BME280;57039;48.014;21.384;2023-02-11T05:34:46;102575.19;;;-5.94;100.00
69766;BME280;57039;48.014;21.384;2023-02-11T05:35:49;102573.25;;;-6.00;100.00
69766;BME280;57039;48.014;21.384;2023-02-11T05:36:53;102563.88;;;-5.99;100.00
69766;BME280;57039;48.014;21.384;2023-02-11T05:37:55;102559.72;;;-5.97;100.00
69766;BME280;57039;48.014;21.384;2023-02-11T05:38:58;102569.28;;;-5.93;100.00
69766;BME280;57039;48.014;21.384;2023-02-11T05:40:01;102565.09;;;-5.91;100.00
69766;BME280;57039;48.014;21.384;2023-02-11T05:41:05;102558.63;;;-6.02;100.00
69766;BME280;57039;48.014;21.384;2023-02-11T05:42:08;102561.47;;;-5.96;100.00
69766;BME280;57039;48.014;21.384;2023-02-11T05:43:11;102557.19;;;-5.97;100.00
69766;BME280;57039;48.014;21.384;2023-02-11T05:44:14;102559.72;;;-5.97;100.00
69766;BME280;57039;48.014;21.384;2023-02-11T05:45:16;102554.63;;;-5.97;100.00
69766;BME280;57039;48.014;21.384;2023-02-11T05:46:19;102552.22;;;-5.94;100.00
69766;BME280;57039;48.014;21.384;2023-02-11T05:47:23;102552.22;;;-5.94;100.00
69766;BME280;57039;48.014;21.384;2023-02-11T05:48:25;102550.53;;;-5.93;100.00
69766;BME280;57039;48.014;21.384;2023-02-11T05:49:28;102557.41;;;-5.91;100.00
69766;BME280;57039;48.014;21.384;2023-02-11T05:50:31;102552.31;;;-5.91;100.00
69766;BME280;57039;48.014;21.384;2023-02-11T05:51:34;102550.53;;;-5.93;100.00
69766;BME280;57039;48.014;21.384;2023-02-11T05:52:37;102544.66;;;-5.91;100.00
69766;BME280;57039;48.014;21.384;2023-02-11T05:53:40;102548.94;;;-5.90;100.00
69766;BME280;57039;48.014;21.384;2023-02-11T05:54:43;102547.97;;;-5.93;100.00
69766;BME280;57039;48.014;21.384;2023-02-11T05:55:46;102538.56;;;-5.94;100.00
69766;BME280;57039;48.014;21.384;2023-02-11T05:56:49;102538.72;;;-5.90;100.00
69766;BME280;57039;48.014;21.384;2023-02-11T05:57:52;102525.97;;;-6.09;100.00
69766;BME280;57039;48.014;21.384;2023-02-11T05:58:57;102544.41;;;-5.97;100.00
69766;BME280;57039;48.014;21.384;2023-02-11T06:00:01;102533.91;;;-6.03;100.00
69766;BME280;57039;48.014;21.384;2023-02-11T06:01:13;102534.03;;;-6.00;100.00
69766;BME280;57039;48.014;21.384;2023-02-11T06:02:16;102539.97;;;-6.01;100.00
69766;BME280;57039;48.014;21.384;2023-02-11T06:03:19;102536.66;;;-5.99;100.00
69766;BME280;57039;48.014;21.384;2023-02-11T06:04:22;102533.09;;;-6.02;100.00
69766;BME280;57039;48.014;21.384;2023-02-11T06:05:25;102542.66;;;-5.98;100.00